Time;durP1;ratioP1;P1;durP2;ratioP2;P2;SDS_P1;SDS_P2;PMS_P1;PMS_P2;Temp;Humidity;BMP_temperature;BMP_pressure;BME280_temperature;BME280_humidity;BME280_pressure;Samples;Min_cycle;Max_cycle;Signal;HPM_P1;HPM_P2
2023/07/25 00:00:23;;;;;;;26.63;6.43;;;;;;;27.72;54.87;97809.69;5012071;28;20052;-94
2023/07/25 00:02:49;;;;;;;23.23;6.50;;;;;;;27.75;54.86;97803.84;5020892;28;20045;-96
2023/07/25 00:05:15;;;;;;;21.02;6.30;;;;;;;27.81;55.03;97805.03;5020246;28;20042;-94
2023/07/25 00:07:41;;;;;;;21.52;6.00;;;;;;;27.85;55.66;97810.00;5020230;28;20072;-95
2023/07/25 00:10:09;;;;;;;21.98;6.25;;;;;;;27.82;55.15;97793.06;5020030;28;20065;-95
2023/07/25 00:12:36;;;;;;;19.50;5.63;;;;;;;27.79;55.23;97787.97;5019171;28;20042;-94
2023/07/25 00:15:02;;;;;;;19.33;6.10;;;;;;;27.70;54.46;97767.19;5020064;28;20080;-95
2023/07/25 00:17:28;;;;;;;17.30;5.78;;;;;;;27.60;54.62;97759.16;5025315;28;20080;-95
2023/07/25 00:19:53;;;;;;;24.70;6.40;;;;;;;27.69;54.55;97766.28;5028636;28;20038;-95
2023/07/25 00:22:19;;;;;;;18.52;6.07;;;;;;;27.63;54.59;97750.63;5019393;28;20045;-95
2023/07/25 00:24:45;;;;;;;20.98;5.68;;;;;;;27.82;54.47;97776.69;5000732;28;20050;-94
2023/07/25 00:27:13;;;;;;;22.70;5.88;;;;;;;27.75;54.68;97770.22;5013553;28;20454;-95
2023/07/25 00:29:39;;;;;;;19.70;5.97;;;;;;;27.75;54.41;97751.09;5020970;28;20038;-95
2023/07/25 00:32:05;;;;;;;18.48;6.07;;;;;;;27.88;53.96;97765.09;5020414;28;20367;-95
2023/07/25 00:34:31;;;;;;;19.40;6.10;;;;;;;27.79;54.33;97761.50;5020306;28;20407;-95
2023/07/25 00:36:57;;;;;;;19.00;6.35;;;;;;;27.82;54.33;97766.63;5019847;28;20044;-96
2023/07/25 00:39:23;;;;;;;19.88;5.70;;;;;;;27.86;54.10;97767.16;5020267;28;20052;-95
2023/07/25 00:41:49;;;;;;;17.98;6.93;;;;;;;27.93;54.00;97770.03;5020164;28;20045;-95
2023/07/25 00:44:16;;;;;;;15.90;5.85;;;;;;;27.94;53.96;97769.00;5020024;28;20038;-95
2023/07/25 00:46:43;;;;;;;20.00;5.93;;;;;;;27.76;53.71;97744.59;5019619;28;20025;-96
2023/07/25 00:49:09;;;;;;;19.88;6.43;;;;;;;27.85;53.39;97757.25;5019430;28;20048;-96
2023/07/25 00:51:35;;;;;;;18.10;5.55;;;;;;;27.85;53.61;97754.53;5019206;28;20049;-95
2023/07/25 00:54:01;;;;;;;16.10;5.82;;;;;;;27.92;53.85;97758.25;5023379;28;20042;-94
2023/07/25 00:56:27;;;;;;;22.20;6.10;;;;;;;27.78;53.67;97746.16;5019207;28;20060;-94
2023/07/25 00:58:53;;;;;;;18.77;5.90;;;;;;;27.86;53.52;97765.25;5019474;28;20140;-95
2023/07/25 01:01:22;;;;;;;18.25;6.22;;;;;;;27.77;53.40;97755.34;5019808;28;20081;-95
2023/07/25 01:03:48;;;;;;;14.82;5.78;;;;;;;27.82;53.33;97757.56;5019943;28;20045;-94
2023/07/25 01:06:15;;;;;;;23.35;6.07;;;;;;;27.91;53.60;97774.81;5019828;28;20136;-95
2023/07/25 01:08:48;;;;;;;20.80;5.85;;;;;;;27.82;53.46;97754.81;5019589;28;20478;-95
2023/07/25 01:11:14;;;;;;;19.77;5.75;;;;;;;27.85;53.95;97738.97;5019090;28;20453;-95
2023/07/25 01:13:39;;;;;;;19.98;5.68;;;;;;;27.73;53.42;97731.31;5019070;28;20065;-95
2023/07/25 01:16:08;;;;;;;22.45;6.63;;;;;;;27.83;52.78;97731.97;5019201;28;20073;-94
2023/07/25 01:18:35;;;;;;;;;;;;;;;27.94;52.62;97753.47;5022620;28;20136;-95
2023/07/25 01:21:05;;;;;;;22.08;6.15;;;;;;;27.89;52.55;97744.94;5019669;28;19927;-95
2023/07/25 01:23:31;;;;;;;21.80;5.78;;;;;;;27.83;52.60;97737.41;5019051;28;20099;-94
2023/07/25 01:25:58;;;;;;;19.58;5.68;;;;;;;27.92;52.16;97739.13;5018797;28;20045;-94
2023/07/25 01:28:25;;;;;;;20.38;5.70;;;;;;;27.83;52.26;97727.34;5018775;28;20045;-95
2023/07/25 01:30:51;;;;;;;16.17;5.28;;;;;;;27.83;52.46;97721.03;5018973;28;20025;-94
2023/07/25 01:33:17;;;;;;;23.58;5.70;;;;;;;27.85;52.55;97716.28;5019016;28;20045;-95
2023/07/25 01:35:42;;;;;;;16.00;5.75;;;;;;;27.80;52.53;97713.16;5018865;28;20073;-94
2023/07/25 01:38:08;;;;;;;19.33;6.65;;;;;;;27.87;52.92;97730.63;5020312;28;20055;-94
2023/07/25 01:40:34;;;;;;;19.60;6.30;;;;;;;27.86;52.82;97731.63;5038758;28;20040;-95
2023/07/25 01:43:01;;;;;;;19.83;5.97;;;;;;;27.75;52.24;97716.44;5038028;28;20068;-95
2023/07/25 01:45:27;;;;;;;23.48;5.65;;;;;;;27.95;52.39;97746.94;5038585;28;20041;-94
2023/07/25 01:47:53;;;;;;;16.02;6.00;;;;;;;27.89;51.85;97731.28;5038830;28;20533;-95
2023/07/25 01:50:19;;;;;;;22.10;6.35;;;;;;;27.88;51.70;97718.63;5038525;28;20041;-93
2023/07/25 01:52:45;;;;;;;17.85;5.88;;;;;;;27.82;52.10;97705.66;5038606;28;20045;-93
2023/07/25 01:55:11;;;;;;;17.83;6.95;;;;;;;27.82;52.21;97706.53;5038226;28;20041;-94
2023/07/25 01:57:37;;;;;;;24.83;5.47;;;;;;;27.98;52.18;97743.88;5038688;28;20056;-95
2023/07/25 02:00:06;;;;;;;19.90;6.38;;;;;;;27.79;52.85;97715.06;5038576;28;20402;-95
2023/07/25 02:02:31;;;;;;;25.50;5.88;;;;;;;27.76;52.58;97712.69;5038450;28;20037;-95
2023/07/25 02:04:57;;;;;;;19.67;5.80;;;;;;;27.79;52.59;97716.94;5038389;28;20059;-95
2023/07/25 02:07:23;;;;;;;17.25;5.65;;;;;;;27.80;52.59;97716.78;5038404;28;20068;-94
2023/07/25 02:09:49;;;;;;;14.90;5.70;;;;;;;27.71;52.66;97703.31;5038233;28;20052;-96
2023/07/25 02:12:15;;;;;;;20.35;6.20;;;;;;;27.73;52.15;97723.09;5038172;28;20033;-95
2023/07/25 02:14:41;;;;;;;20.40;6.43;;;;;;;27.69;52.28;97717.13;5033827;28;20368;-94
2023/07/25 02:17:08;;;;;;;20.20;5.18;;;;;;;27.64;52.53;97706.75;5017675;28;20048;-94
2023/07/25 02:19:34;;;;;;;16.45;5.78;;;;;;;27.69;52.25;97703.47;5017964;28;20136;-95
2023/07/25 02:22:00;;;;;;;22.42;5.75;;;;;;;27.76;51.97;97720.88;5018243;28;20076;-93
2023/07/25 02:24:26;;;;;;;19.13;6.13;;;;;;;27.80;51.48;97726.81;5032192;28;20056;-94
2023/07/25 02:26:52;;;;;;;20.63;6.30;;;;;;;27.75;51.79;97726.53;5038270;28;20041;-95
2023/07/25 02:29:18;;;;;;;18.60;5.88;;;;;;;27.68;51.08;97703.69;5037991;28;20041;-95
2023/07/25 02:31:44;;;;;;;21.13;5.90;;;;;;;27.79;51.30;97719.69;5038154;28;20049;-95
2023/07/25 02:34:12;;;;;;;21.35;6.10;;;;;;;27.72;51.09;97691.38;5037888;28;20053;-95
2023/07/25 02:36:38;;;;;;;18.73;5.50;;;;;;;27.72;51.23;97691.38;5055931;28;20041;-95
2023/07/25 02:39:04;;;;;;;20.73;6.40;;;;;;;27.72;51.43;97702.31;5037919;28;20081;-95
2023/07/25 02:41:30;;;;;;;14.18;5.55;;;;;;;27.79;51.20;97728.72;5037803;28;20084;-95
2023/07/25 02:43:56;;;;;;;21.77;5.47;;;;;;;27.64;51.91;97701.28;5037724;28;20136;-95
2023/07/25 02:46:21;;;;;;;23.85;6.05;;;;;;;27.65;51.67;97703.00;5037919;28;20144;-95
2023/07/25 02:48:47;;;;;;;18.90;6.15;;;;;;;27.59;51.93;97686.47;5037726;28;20079;-95
2023/07/25 02:51:15;;;;;;;20.25;6.10;;;;;;;27.69;51.96;97710.81;5037970;28;20033;-95
2023/07/25 02:53:40;;;;;;;23.00;5.68;;;;;;;27.66;51.64;97717.50;5037889;28;20242;-94
2023/07/25 02:56:06;;;;;;;16.38;5.80;;;;;;;27.65;52.01;97721.25;5039413;28;20097;-94
2023/07/25 02:58:32;;;;;;;20.25;6.07;;;;;;;27.56;51.72;97700.44;5040766;28;20094;-96
2023/07/25 03:00:58;;;;;;;15.68;5.30;;;;;;;27.59;52.37;97700.97;5041308;28;20493;-94
2023/07/25 03:03:24;;;;;;;18.42;5.97;;;;;;;27.56;52.87;97695.00;5041357;28;20037;-94
2023/07/25 03:05:50;;;;;;;19.13;5.70;;;;;;;27.44;53.97;97673.53;5041489;28;20056;-95
2023/07/25 03:08:18;;;;;;;16.90;5.85;;;;;;;27.32;54.55;97661.28;5041259;28;20080;-95
2023/07/25 03:10:43;;;;;;;16.25;6.13;;;;;;;27.30;54.62;97665.19;5041314;28;20071;-95
2023/07/25 03:13:09;;;;;;;19.67;6.00;;;;;;;27.26;54.45;97662.00;5041190;28;20048;-95
2023/07/25 03:15:36;;;;;;;18.75;6.10;;;;;;;27.10;54.75;97631.97;5041334;28;20040;-95
2023/07/25 03:18:02;;;;;;;18.23;5.70;;;;;;;27.10;54.50;97641.00;5041343;28;20044;-93
2023/07/25 03:20:28;;;;;;;20.83;6.57;;;;;;;27.08;54.61;97640.31;5041628;28;20140;-95
2023/07/25 03:22:54;;;;;;;17.35;5.75;;;;;;;26.97;54.65;97613.41;5040921;28;20041;-95
2023/07/25 03:25:21;;;;;;;22.42;6.68;;;;;;;26.89;54.67;97619.75;5041091;28;20071;-95
2023/07/25 03:27:47;;;;;;;22.50;6.20;;;;;;;26.84;55.11;97609.31;5041028;28;20135;-95
2023/07/25 03:30:13;;;;;;;17.00;5.88;;;;;;;26.93;55.17;97633.88;5041058;28;20079;-94
2023/07/25 03:32:39;;;;;;;15.85;5.75;;;;;;;26.86;55.70;97646.50;5040889;28;20025;-95
2023/07/25 03:35:05;;;;;;;18.23;5.90;;;;;;;26.78;55.99;97650.06;5040800;28;20041;-95
2023/07/25 03:37:31;;;;;;;17.55;5.60;;;;;;;26.78;55.95;97678.22;5039889;28;20471;-94
2023/07/25 03:39:57;;;;;;;20.83;6.07;;;;;;;26.66;56.28;97676.84;5039981;28;20107;-95
2023/07/25 03:42:24;;;;;;;18.52;5.82;;;;;;;26.57;56.34;97673.28;5040777;28;20037;-94
2023/07/25 03:44:51;;;;;;;16.70;5.78;;;;;;;26.59;56.52;97682.13;5040548;28;20079;-94
2023/07/25 03:47:16;;;;;;;18.63;5.55;;;;;;;26.68;56.94;97702.06;5040603;28;20041;-96
2023/07/25 03:49:42;;;;;;;14.95;5.57;;;;;;;26.63;57.46;97698.97;5040665;28;20041;-94
2023/07/25 03:52:09;;;;;;;20.77;6.05;;;;;;;26.75;56.92;97708.53;5040754;28;20043;-94
2023/07/25 03:54:35;;;;;;;19.83;6.10;;;;;;;26.67;56.87;97689.44;5040872;28;20041;-94
2023/07/25 03:57:01;;;;;;;22.25;6.10;;;;;;;26.64;57.60;97674.28;5040420;28;20561;-95
2023/07/25 03:59:29;;;;;;;22.67;6.20;;;;;;;26.70;58.18;97688.28;5040247;28;20110;-94
2023/07/25 04:01:54;;;;;;;17.70;5.82;;;;;;;26.56;57.60;97668.81;5040607;28;20044;-95
2023/07/25 04:04:23;;;;;;;18.35;5.78;;;;;;;26.51;57.25;97651.25;5040218;28;20521;-94
2023/07/25 04:06:49;;;;;;;19.30;5.80;;;;;;;26.56;57.61;97666.09;5039739;28;20051;-94
2023/07/25 04:09:15;;;;;;;20.40;6.43;;;;;;;26.59;57.51;97681.28;5039997;28;20139;-95
2023/07/25 04:11:41;;;;;;;16.50;5.72;;;;;;;26.59;57.50;97706.69;5040274;28;20049;-94
2023/07/25 04:14:07;;;;;;;21.20;5.97;;;;;;;26.56;57.28;97722.50;5040004;28;20037;-96
2023/07/25 04:16:34;;;;;;;21.02;5.90;;;;;;;26.53;57.50;97741.91;5039947;28;20063;-94
2023/07/25 04:19:00;;;;;;;16.25;5.55;;;;;;;26.56;57.37;97753.34;5038691;28;20536;-95
2023/07/25 04:21:25;;;;;;;15.85;5.97;;;;;;;26.66;57.52;97779.63;5039587;28;20040;-95
2023/07/25 04:23:51;;;;;;;19.77;6.07;;;;;;;26.69;57.38;97784.72;5040682;28;20140;-96
2023/07/25 04:26:17;;;;;;;19.00;5.72;;;;;;;26.68;57.23;97775.72;5039985;28;20045;-95
2023/07/25 04:28:48;;;;;;;18.15;5.45;;;;;;;26.70;57.43;97753.72;5040623;28;20041;-96
2023/07/25 04:31:15;;;;;;;16.48;5.75;;;;;;;26.79;57.44;97723.56;5039793;28;20487;-95
2023/07/25 04:33:42;;;;;;;17.33;6.00;;;;;;;26.54;58.03;97684.47;5039585;28;20048;-95
2023/07/25 04:36:08;;;;;;;18.83;5.30;;;;;;;26.40;59.62;97696.91;5039970;28;20045;-95
2023/07/25 04:38:34;;;;;;;16.70;6.07;;;;;;;26.52;59.83;97697.41;5039624;28;20144;-94
2023/07/25 04:41:00;;;;;;;20.70;6.25;;;;;;;26.43;61.47;97682.91;5039565;28;20059;-95
2023/07/25 04:43:26;;;;;;;21.90;6.47;;;;;;;26.27;62.35;97663.84;5039432;28;20037;-94
2023/07/25 04:45:52;;;;;;;15.52;6.00;;;;;;;26.28;61.74;97631.97;5039546;28;20041;-95
2023/07/25 04:48:17;;;;;;;20.40;6.57;;;;;;;26.49;60.86;97615.13;5039469;28;20086;-94
2023/07/25 04:50:45;;;;;;;15.65;5.97;;;;;;;26.49;59.93;97566.91;5039492;28;20483;-95
2023/07/25 04:53:10;;;;;;;20.80;6.13;;;;;;;26.47;61.84;97558.03;5039076;28;20041;-94
2023/07/25 04:55:36;;;;;;;19.83;5.75;;;;;;;26.58;61.02;97537.78;5039946;28;20099;-94
2023/07/25 04:58:02;;;;;;;15.85;5.50;;;;;;;26.82;61.08;97561.44;5040517;28;20037;-94
2023/07/25 05:00:28;;;;;;;21.08;6.93;;;;;;;26.84;59.43;97532.94;5042796;28;20051;-95
2023/07/25 05:02:54;;;;;;;21.75;6.03;;;;;;;26.99;58.58;97562.25;5043226;28;20367;-96
2023/07/25 05:05:20;;;;;;;21.45;6.38;;;;;;;27.13;57.89;97571.56;5040036;28;20224;-95
2023/07/25 05:07:47;;;;;;;23.17;6.32;;;;;;;27.38;58.36;97586.03;5041513;28;20398;-96
2023/07/25 05:10:13;;;;;;;18.95;6.47;;;;;;;27.43;57.11;97595.41;5040121;28;20071;-94
2023/07/25 05:12:39;;;;;;;23.67;8.05;;;;;;;27.48;57.72;97564.81;5042028;28;20041;-95
2023/07/25 05:15:06;;;;;;;22.20;7.30;;;;;;;27.33;58.50;97597.47;5040694;28;20037;-96
2023/07/25 05:17:32;;;;;;;20.13;6.25;;;;;;;27.36;60.12;97602.56;5060400;28;20045;-95
2023/07/25 05:19:57;;;;;;;20.23;6.25;;;;;;;27.18;59.04;97585.56;5040767;28;20524;-96
2023/07/25 05:22:23;;;;;;;20.95;7.72;;;;;;;26.87;59.55;97615.47;5039565;28;20037;-95
2023/07/25 05:24:51;;;;;;;20.58;6.68;;;;;;;26.58;61.15;97623.16;5041066;28;20486;-96
2023/07/25 05:27:16;;;;;;;20.85;6.05;;;;;;;26.44;60.72;97575.59;5041732;28;20048;-94
2023/07/25 05:29:42;;;;;;;20.25;6.20;;;;;;;26.57;61.05;97593.34;5043236;28;20045;-95
2023/07/25 05:32:08;;;;;;;15.35;6.47;;;;;;;26.59;62.20;97624.88;5041367;28;20449;-95
2023/07/25 05:34:34;;;;;;;17.17;6.40;;;;;;;26.59;64.12;97621.31;5026310;28;20044;-95
2023/07/25 05:37:00;;;;;;;19.70;6.30;;;;;;;26.27;65.64;97635.72;5020611;28;20145;-95
2023/07/25 05:39:26;;;;;;;21.15;7.13;;;;;;;26.34;65.90;97614.94;5019109;28;20052;-96
2023/07/25 05:41:53;;;;;;;22.40;6.93;;;;;;;25.98;63.62;97642.47;5023078;28;20053;-95
2023/07/25 05:44:20;;;;;;;20.13;6.78;;;;;;;26.03;62.47;97678.25;5028522;28;20068;-96
2023/07/25 05:46:47;;;;;;;20.00;6.53;;;;;;;26.17;63.23;97652.22;5027960;28;20066;-95
2023/07/25 05:49:13;;;;;;;28.58;6.85;;;;;;;26.25;63.22;97656.84;5022574;28;20037;-96
2023/07/25 05:51:39;;;;;;;26.42;6.78;;;;;;;26.34;63.02;97662.13;5023010;28;20411;-95
2023/07/25 05:54:05;;;;;;;23.58;6.40;;;;;;;26.48;62.54;97667.94;5020648;28;20057;-95
2023/07/25 05:56:31;;;;;;;27.55;7.13;;;;;;;26.70;61.80;97640.03;5019298;28;20053;-96
2023/07/25 05:59:15;;;;;;;17.42;6.18;;;;;;;26.91;60.39;97641.38;5021031;28;20158;-95
2023/07/25 06:01:41;;;;;;;22.80;7.03;;;;;;;26.97;60.30;97608.78;5018717;28;20049;-95
2023/07/25 06:04:07;;;;;;;22.33;6.68;;;;;;;26.97;60.09;97618.84;5018649;28;20048;-94
2023/07/25 06:06:33;;;;;;;16.63;6.07;;;;;;;26.99;62.02;97628.56;5020099;28;20052;-95
2023/07/25 06:08:58;;;;;;;19.52;5.75;;;;;;;27.02;61.32;97628.25;5020075;28;20048;-96
2023/07/25 06:11:25;;;;;;;18.67;5.50;;;;;;;27.22;60.29;97655.19;5019147;28;20037;-95
2023/07/25 06:13:52;;;;;;;19.15;6.22;;;;;;;27.21;60.20;97654.31;5018513;28;20041;-96
2023/07/25 06:16:20;;;;;;;25.50;6.60;;;;;;;27.44;59.80;97638.03;5018240;28;20059;-95
2023/07/25 06:18:45;;;;;;;20.98;6.30;;;;;;;27.83;59.25;97671.84;5018398;28;20064;-95
2023/07/25 06:21:11;;;;;;;23.90;7.15;;;;;;;27.63;58.84;97674.16;5020145;28;20037;-96
2023/07/25 06:23:37;;;;;;;20.08;6.43;;;;;;;27.63;60.08;97709.66;5024346;28;20049;-96
2023/07/25 06:26:05;;;;;;;21.25;6.20;;;;;;;27.63;59.75;97726.06;5039640;28;20103;-96
2023/07/25 06:28:31;;;;;;;20.40;6.93;;;;;;;27.54;59.36;97708.84;5039777;28;20045;-96
2023/07/25 06:30:57;;;;;;;17.75;5.95;;;;;;;27.71;58.10;97722.44;5043114;28;20041;-96
2023/07/25 06:33:24;;;;;;;23.92;6.65;;;;;;;27.76;57.94;97717.28;5043587;28;20080;-96
2023/07/25 06:35:50;;;;;;;23.95;6.15;;;;;;;27.87;57.45;97719.69;5043039;28;20077;-96
2023/07/25 06:38:16;;;;;;;22.63;6.50;;;;;;;28.10;56.64;97735.28;5043809;28;20068;-95
2023/07/25 06:40:42;;;;;;;21.70;6.40;;;;;;;28.03;58.02;97722.31;5043846;28;20041;-96
2023/07/25 06:43:08;;;;;;;23.02;7.18;;;;;;;28.10;57.82;97721.63;5044062;28;20052;-96
2023/07/25 06:45:33;;;;;;;26.27;6.65;;;;;;;28.37;58.52;97732.06;5043829;28;20053;-95
2023/07/25 06:47:59;;;;;;;25.40;7.13;;;;;;;28.63;58.52;97720.81;5046241;28;20048;-95
2023/07/25 06:50:27;;;;;;;15.27;6.00;;;;;;;28.63;59.76;97682.53;5045099;28;20379;-95
2023/07/25 06:52:53;;;;;;;19.20;6.43;;;;;;;28.68;58.13;97657.34;5045417;28;20072;-95
2023/07/25 06:55:19;;;;;;;22.17;6.18;;;;;;;28.61;58.63;97638.09;5045372;28;20387;-96
2023/07/25 06:57:45;;;;;;;25.08;7.13;;;;;;;28.54;60.86;97636.25;5045078;28;20486;-96
2023/07/25 07:00:12;;;;;;;28.95;6.57;;;;;;;28.35;61.34;97608.38;5049096;28;20075;-95
2023/07/25 07:02:38;;;;;;;23.50;6.60;;;;;;;28.30;61.53;97613.53;5047858;28;20456;-95
2023/07/25 07:05:04;;;;;;;19.05;6.00;;;;;;;28.23;60.86;97626.22;5046069;28;20083;-96
2023/07/25 07:07:32;;;;;;;29.73;7.22;;;;;;;28.04;62.07;97622.06;5047184;28;20490;-96
2023/07/25 07:09:58;;;;;;;22.77;6.97;;;;;;;27.77;64.55;97612.47;5047775;28;20041;-96
2023/07/25 07:12:24;;;;;;;23.45;7.05;;;;;;;27.66;67.71;97611.81;5046933;28;20052;-95
2023/07/25 07:14:50;;;;;;;16.85;6.35;;;;;;;27.44;71.20;97632.56;5046168;28;20048;-95
2023/07/25 07:17:17;;;;;;;24.08;6.70;;;;;;;27.27;68.73;97673.75;5044714;28;20049;-95
2023/07/25 07:19:43;;;;;;;26.38;7.07;;;;;;;27.25;67.72;97720.31;5044343;28;20502;-95
2023/07/25 07:22:09;;;;;;;27.90;6.97;;;;;;;27.14;67.15;97737.03;5044847;28;20078;-95
2023/07/25 07:24:36;;;;;;;22.70;7.28;;;;;;;27.12;67.53;97748.09;5046210;28;20049;-96
2023/07/25 07:27:03;;;;;;;24.50;6.47;;;;;;;27.11;67.58;97737.34;5045155;28;20490;-95
2023/07/25 07:29:29;;;;;;;23.05;6.97;;;;;;;27.09;67.08;97677.50;5045793;28;20462;-95
2023/07/25 07:31:54;;;;;;;28.13;7.22;;;;;;;27.17;68.05;97690.28;5045514;28;20136;-96
2023/07/25 07:34:20;;;;;;;24.73;7.13;;;;;;;27.19;69.50;97699.97;5045999;28;20045;-94
2023/07/25 07:36:46;;;;;;;31.98;8.25;;;;;;;27.22;71.21;97686.03;5046476;28;20041;-95
2023/07/25 07:39:12;;;;;;;24.50;7.15;;;;;;;27.32;70.71;97674.06;5034085;28;20061;-96
2023/07/25 07:41:40;;;;;;;25.65;8.15;;;;;;;27.63;68.60;97664.09;5024783;28;20037;-96
2023/07/25 07:44:06;;;;;;;22.20;7.27;;;;;;;27.84;67.12;97662.63;5026009;28;20053;-94
2023/07/25 07:46:32;;;;;;;23.90;7.40;;;;;;;28.08;67.09;97628.88;5022868;28;20049;-95
2023/07/25 07:48:59;;;;;;;27.23;7.38;;;;;;;28.13;67.97;97601.00;5021934;28;20092;-94
2023/07/25 07:51:25;;;;;;;25.67;6.82;;;;;;;28.45;64.87;97559.75;5015937;28;20044;-95
2023/07/25 07:53:51;;;;;;;30.08;7.80;;;;;;;28.58;63.33;97530.94;5012709;28;20103;-95
2023/07/25 07:56:17;;;;;;;22.85;7.15;;;;;;;28.75;61.77;97504.25;5002176;28;20144;-95
2023/07/25 07:58:45;;;;;;;23.70;7.40;;;;;;;28.83;62.40;97502.28;5002935;28;20498;-94
2023/07/25 08:01:15;;;;;;;24.25;7.13;;;;;;;28.75;62.93;97516.03;5006699;28;20521;-95
2023/07/25 08:03:41;;;;;;;24.75;8.40;;;;;;;29.00;61.44;97535.78;5022510;28;20053;-96
2023/07/25 08:06:07;;;;;;;25.38;7.63;;;;;;;28.76;63.30;97555.22;5022804;28;20478;-95
2023/07/25 08:08:33;;;;;;;26.30;7.82;;;;;;;28.46;62.60;97569.63;5022570;28;20038;-95
2023/07/25 08:10:58;;;;;;;23.50;7.65;;;;;;;28.27;67.54;97529.13;5022595;28;20136;-95
2023/07/25 08:13:24;;;;;;;23.35;7.82;;;;;;;28.37;66.71;97491.47;5023042;28;20042;-95
2023/07/25 08:15:52;;;;;;;25.08;7.80;;;;;;;28.33;68.23;97472.88;5022384;28;20171;-95
2023/07/25 08:18:18;;;;;;;24.27;7.55;;;;;;;28.27;66.61;97439.75;5022751;28;20107;-94
2023/07/25 08:20:45;;;;;;;30.42;8.48;;;;;;;28.22;66.04;97441.38;5022357;28;20033;-95
2023/07/25 08:23:12;;;;;;;26.75;8.38;;;;;;;28.18;66.43;97516.59;5022624;28;20533;-96
2023/07/25 08:25:38;;;;;;;24.55;8.00;;;;;;;28.58;64.79;97561.00;5022679;28;20099;-95
2023/07/25 08:28:03;;;;;;;26.05;7.93;;;;;;;28.79;64.56;97539.25;5020973;28;20049;-95
2023/07/25 08:30:29;;;;;;;29.75;7.82;;;;;;;28.97;64.20;97483.31;5022676;28;20042;-95
2023/07/25 08:32:57;;;;;;;25.00;8.02;;;;;;;29.72;60.76;97476.69;5022793;28;20075;-95
2023/07/25 08:35:23;;;;;;;24.00;7.70;;;;;;;30.45;56.11;97474.66;5022516;28;20045;-95
2023/07/25 08:37:49;;;;;;;24.88;7.20;;;;;;;31.06;53.96;97468.50;5024842;28;20056;-94
2023/07/25 08:40:15;;;;;;;35.20;6.72;;;;;;;31.15;53.03;97417.00;5040857;28;20045;-96
2023/07/25 08:42:43;;;;;;;22.45;7.32;;;;;;;30.90;53.26;97390.09;5040477;28;20493;-95
2023/07/25 08:45:10;;;;;;;;;;;;;;;31.14;53.05;97419.94;5039918;28;20470;-95
2023/07/25 08:47:40;;;;;;;27.42;7.40;;;;;;;31.37;52.67;97416.84;5039685;28;19956;-94
2023/07/25 08:50:13;;;;;;;32.53;7.78;;;;;;;31.49;51.05;97456.47;5039104;28;20041;-95
2023/07/25 08:52:41;;;;;;;26.23;7.55;;;;;;;31.69;50.90;97500.47;5038282;28;20518;-94
2023/07/25 08:55:07;;;;;;;25.90;6.83;;;;;;;31.11;51.77;97468.72;5039036;28;20563;-94
2023/07/25 08:57:33;;;;;;;27.17;7.32;;;;;;;31.07;51.99;97461.94;5039220;28;20258;-94
2023/07/25 08:59:59;;;;;;;28.60;7.82;;;;;;;31.41;51.29;97475.84;5038977;28;20425;-95
2023/07/25 09:02:26;;;;;;;25.10;7.00;;;;;;;31.77;51.13;97488.41;5038928;28;20045;-95
2023/07/25 09:04:52;;;;;;;28.13;7.63;;;;;;;32.48;48.82;97496.97;5039107;28;20502;-95
2023/07/25 09:07:20;;;;;;;28.85;7.70;;;;;;;32.25;49.19;97461.66;5039734;28;20140;-95
2023/07/25 09:09:46;;;;;;;20.20;6.13;;;;;;;32.70;49.23;97502.28;5039352;28;20041;-95
2023/07/25 09:12:12;;;;;;;21.88;7.63;;;;;;;32.71;48.59;97488.31;5038625;28;20051;-94
2023/07/25 09:14:39;;;;;;;27.88;7.35;;;;;;;32.12;51.23;97498.25;5039664;28;20045;-94
2023/07/25 09:17:06;;;;;;;26.90;7.67;;;;;;;31.89;50.15;97497.75;5039043;28;20052;-96
2023/07/25 09:19:32;;;;;;;24.33;7.13;;;;;;;32.24;50.37;97483.88;5040363;28;20136;-95
2023/07/25 09:21:58;;;;;;;27.27;7.07;;;;;;;32.14;50.26;97476.06;5041394;28;20037;-94
2023/07/25 09:24:35;;;;;;;21.23;7.78;;;;;;;32.14;49.94;97470.56;5022819;28;20135;-95
2023/07/25 09:27:01;;;;;;;32.55;8.55;;;;;;;31.61;50.20;97446.53;5020366;28;20392;-94
2023/07/25 09:29:28;;;;;;;20.17;7.30;;;;;;;32.07;49.56;97477.94;5038700;28;20521;-95
2023/07/25 09:31:55;;;;;;;23.75;7.13;;;;;;;32.22;49.79;97473.06;5038852;28;20108;-94
2023/07/25 09:34:23;;;;;;;21.27;7.25;;;;;;;32.09;49.60;97470.31;5039451;28;20109;-95
2023/07/25 09:36:49;;;;;;;24.23;7.20;;;;;;;32.15;48.56;97463.13;5021266;28;20041;-95
2023/07/25 09:39:16;;;;;;;31.67;7.47;;;;;;;32.31;48.61;97459.94;5007572;28;20488;-95
2023/07/25 09:41:45;;;;;;;18.80;6.82;;;;;;;32.41;49.35;97474.13;5000055;28;20069;-96
2023/07/25 09:44:12;;;;;;;19.15;6.38;;;;;;;32.65;45.43;97452.53;5000661;28;20046;-95
2023/07/25 09:46:38;;;;;;;20.10;7.63;;;;;;;32.71;45.96;97448.94;5000717;28;20072;-95
2023/07/25 09:49:04;;;;;;;21.25;7.47;;;;;;;33.03;45.77;97449.91;5001840;28;20141;-95
2023/07/25 09:51:30;;;;;;;27.33;6.65;;;;;;;33.06;47.05;97457.75;5021109;28;20050;-95
2023/07/25 09:53:56;;;;;;;20.73;6.93;;;;;;;33.37;44.15;97456.13;5025227;28;20471;-96
2023/07/25 09:56:23;;;;;;;29.75;6.85;;;;;;;33.24;44.13;97451.53;5021142;28;20041;-96
2023/07/25 09:58:52;;;;;;;22.33;7.75;;;;;;;33.21;42.25;97462.16;5023190;28;20112;-96
2023/07/25 10:01:18;;;;;;;21.90;7.22;;;;;;;33.31;42.39;97468.03;5022656;28;20081;-96
2023/07/25 10:03:45;;;;;;;39.13;7.70;;;;;;;33.21;41.89;97448.38;5021784;28;20144;-96
2023/07/25 10:06:14;;;;;;;24.15;6.85;;;;;;;32.84;43.49;97459.06;5020638;28;20057;-93
2023/07/25 10:08:43;;;;;;;25.33;7.15;;;;;;;32.76;43.42;97449.13;5020657;28;20491;-96
2023/07/25 10:11:10;;;;;;;21.92;7.18;;;;;;;33.12;43.27;97442.28;5020435;28;20215;-94
2023/07/25 10:13:36;;;;;;;18.27;6.68;;;;;;;33.26;42.57;97438.38;5020835;28;20042;-95
2023/07/25 10:16:04;;;;;;;26.33;6.95;;;;;;;33.42;42.06;97447.22;5020312;28;20045;-94
2023/07/25 10:18:32;;;;;;;;;;;;;;;33.74;41.81;97448.13;5020863;28;20045;-96
2023/07/25 10:20:58;;;;;;;;;;;;;;;33.91;41.72;97453.97;5021496;28;19965;-96
2023/07/25 10:23:30;;;;;;;29.98;7.70;;;;;;;33.76;40.85;97433.03;5021144;28;19921;-95
2023/07/25 10:25:56;;;;;;;20.98;7.30;;;;;;;33.90;40.74;97428.28;5022611;28;20380;-96
2023/07/25 10:28:22;;;;;;;20.23;7.32;;;;;;;33.56;40.80;97430.38;5023048;28;20048;-96
2023/07/25 10:30:48;;;;;;;24.80;7.85;;;;;;;33.21;41.71;97432.69;5024332;28;20403;-96
2023/07/25 10:33:17;;;;;;;27.88;7.38;;;;;;;33.35;42.97;97456.38;5024108;28;20045;-95
2023/07/25 10:35:52;;;;;;;23.45;6.70;;;;;;;33.26;42.31;97443.91;5024925;28;20041;-96
2023/07/25 10:38:31;;;;;;;23.48;6.93;;;;;;;33.85;41.04;97447.41;5032210;28;20048;-96
2023/07/25 10:40:59;;;;;;;20.40;7.25;;;;;;;34.22;40.19;97450.34;5029681;28;20049;-96
2023/07/25 10:43:55;;;;;;;26.05;7.18;;;;;;;34.57;39.91;97469.16;5032474;28;20030;-96
2023/07/25 10:46:26;;;;;;;27.67;6.80;;;;;;;34.90;40.74;97421.88;5031610;28;20053;-96
2023/07/25 10:48:54;;;;;;;17.40;7.53;;;;;;;35.13;39.38;97432.28;5030205;28;20103;-96
2023/07/25 10:51:21;;;;;;;22.67;7.88;;;;;;;35.07;39.40;97411.06;5028980;28;20049;-96
2023/07/25 10:54:08;;;;;;;24.70;7.38;;;;;;;35.18;38.70;97428.81;5028572;28;20060;-96
2023/07/25 10:56:35;;;;;;;28.27;7.80;;;;;;;34.88;38.54;97403.88;5027574;28;20050;-96
2023/07/25 10:59:04;;;;;;;24.42;7.22;;;;;;;35.11;38.28;97401.25;5015188;28;20198;-96
2023/07/25 11:01:34;;;;;;;31.35;7.50;;;;;;;35.01;38.98;97392.66;5014673;28;20042;-96
2023/07/25 11:04:34;;;;;;;24.08;7.88;;;;;;;35.30;37.56;97379.13;5029711;28;20049;-96
2023/07/25 11:07:10;;;;;;;20.52;7.18;;;;;;;35.38;38.46;97381.56;5029597;28;20136;-96
2023/07/25 11:09:40;;;;;;;23.30;7.25;;;;;;;35.58;37.01;97376.56;5034301;28;20045;-96
2023/07/25 11:12:10;;;;;;;22.73;6.70;;;;;;;35.64;37.15;97361.00;5030237;28;20072;-96
2023/07/25 11:14:41;;;;;;;22.35;7.15;;;;;;;35.91;36.39;97350.34;5029155;28;20037;-94
2023/07/25 11:17:07;;;;;;;24.98;7.20;;;;;;;35.93;36.63;97363.94;5008116;28;20026;-96
2023/07/25 11:19:34;;;;;;;23.58;6.90;;;;;;;35.30;37.54;97348.72;5030394;28;20108;-95
2023/07/25 11:22:14;;;;;;;28.70;7.15;;;;;;;34.73;37.70;97358.13;5032804;28;20037;-96
2023/07/25 11:24:45;;;;;;;25.95;7.53;;;;;;;33.97;38.72;97340.81;5032465;28;20076;-96